createdAt,value
2018-06-09T00:01:17.492Z,19.70
2018-06-09T00:03:47.277Z,19.60
2018-06-09T00:06:17.141Z,19.60
2018-06-09T00:08:46.793Z,19.50
2018-06-09T00:11:16.447Z,19.40
2018-06-09T00:13:46.084Z,19.40
2018-06-09T00:16:15.595Z,19.40
2018-06-09T00:18:45.475Z,19.30
2018-06-09T00:21:15.133Z,19.30
2018-06-09T00:23:44.853Z,19.20
2018-06-09T00:26:14.536Z,19.10
2018-06-09T00:28:44.157Z,19.00
2018-06-09T00:31:13.776Z,19.00
2018-06-09T00:33:43.533Z,18.80
2018-06-09T00:38:42.074Z,18.70
2018-06-09T00:41:11.859Z,18.60
2018-06-09T00:43:41.600Z,18.60
2018-06-09T00:46:11.181Z,18.60
2018-06-09T00:48:40.869Z,18.50
2018-06-09T00:51:10.630Z,18.50
2018-06-09T00:53:40.297Z,18.50
2018-06-09T00:56:20.704Z,18.40
2018-06-09T00:58:50.260Z,18.50
2018-06-09T01:03:49.164Z,18.50
2018-06-09T01:06:18.815Z,18.60
2018-06-09T01:08:48.495Z,18.60
2018-06-09T01:11:18.232Z,18.70
2018-06-09T01:13:47.944Z,18.80
2018-06-09T01:16:17.524Z,18.80
2018-06-09T01:18:47.066Z,18.80
2018-06-09T01:21:16.777Z,18.90
2018-06-09T01:23:46.540Z,18.90
2018-06-09T01:26:16.056Z,18.90
2018-06-09T01:28:45.732Z,19.00
2018-06-09T01:31:15.501Z,19.00
2018-06-09T01:33:45.310Z,19.00
2018-06-09T01:36:14.804Z,19.00
2018-06-09T01:38:44.486Z,19.00
2018-06-09T01:41:14.153Z,19.00
2018-06-09T01:43:44.004Z,19.10
2018-06-09T01:48:42.516Z,19.10
2018-06-09T01:51:12.128Z,19.10
2018-06-09T01:53:41.826Z,19.20
2018-06-09T01:56:11.407Z,19.20
2018-06-09T01:58:41.053Z,19.20
2018-06-09T02:01:10.837Z,19.30
2018-06-09T02:03:40.468Z,19.30
2018-06-09T02:06:10.060Z,19.30
2018-06-09T02:08:39.719Z,19.30
2018-06-09T02:11:09.480Z,19.30
2018-06-09T02:13:39.233Z,19.30
2018-06-09T02:16:08.932Z,19.30
2018-06-09T02:18:38.612Z,19.30
2018-06-09T02:21:08.365Z,19.40
2018-06-09T02:23:38.054Z,19.40
2018-06-09T02:26:07.752Z,19.30
2018-06-09T02:28:37.469Z,19.30
2018-06-09T02:31:07.065Z,19.40
2018-06-09T02:33:36.605Z,19.40
2018-06-09T02:36:06.513Z,19.40
2018-06-09T02:38:36.287Z,19.40
2018-06-09T02:41:06.048Z,19.50
2018-06-09T02:43:35.818Z,19.40
2018-06-09T02:46:05.670Z,19.40
2018-06-09T02:48:38.477Z,19.30
2018-06-09T02:51:12.955Z,19.40
2018-06-09T02:53:44.979Z,19.30
2018-06-09T02:56:17.342Z,19.30
2018-06-09T02:58:47.073Z,19.30
2018-06-09T03:01:16.728Z,19.30
2018-06-09T03:03:46.653Z,19.30
2018-06-09T03:06:16.411Z,19.20
2018-06-09T03:08:46.059Z,19.00
2018-06-09T03:11:15.833Z,18.90
2018-06-09T03:13:45.590Z,18.80
2018-06-09T03:16:15.386Z,18.80
2018-06-09T03:18:44.958Z,18.80
2018-06-09T03:21:14.608Z,18.80
2018-06-09T03:23:44.201Z,18.70
2018-06-09T03:26:13.881Z,18.70
2018-06-09T03:31:12.585Z,18.70
2018-06-09T03:33:42.340Z,18.70
2018-06-09T03:36:12.217Z,18.80
2018-06-09T03:38:41.765Z,18.90
2018-06-09T03:41:11.525Z,18.90
2018-06-09T03:43:41.188Z,19.00
2018-06-09T03:46:10.857Z,19.00
2018-06-09T03:48:40.452Z,19.10
2018-06-09T03:51:09.993Z,19.20
2018-06-09T03:53:39.576Z,19.20
2018-06-09T03:56:09.377Z,19.30
2018-06-09T03:58:38.918Z,19.30
2018-06-09T04:01:08.614Z,19.30
2018-06-09T04:03:38.408Z,19.30
2018-06-09T04:06:08.133Z,19.30
2018-06-09T04:08:37.721Z,19.30
2018-06-09T04:11:07.484Z,19.30
2018-06-09T04:13:37.261Z,19.20
2018-06-09T04:16:06.952Z,19.20
2018-06-09T04:18:36.608Z,19.20
2018-06-09T04:21:06.393Z,19.20
2018-06-09T04:23:36.035Z,19.20
2018-06-09T04:26:05.731Z,19.20
2018-06-09T04:28:35.556Z,19.20
2018-06-09T04:31:05.132Z,19.20
2018-06-09T04:33:34.773Z,19.30
2018-06-09T04:38:33.775Z,19.20
2018-06-09T04:41:03.509Z,19.20
2018-06-09T04:43:33.276Z,19.30
2018-06-09T04:46:02.856Z,19.30
2018-06-09T04:48:32.585Z,19.30
2018-06-09T04:51:02.189Z,19.40
2018-06-09T04:53:31.877Z,19.50
2018-06-09T04:56:01.450Z,19.50
2018-06-09T04:58:31.174Z,19.60
2018-06-09T05:01:02.011Z,19.70
2018-06-09T05:03:32.809Z,19.70
2018-06-09T05:06:03.527Z,19.80
2018-06-09T05:08:34.141Z,19.80
2018-06-09T05:11:04.858Z,19.80
2018-06-09T05:13:35.803Z,19.80
2018-06-09T05:16:06.769Z,19.80
2018-06-09T05:18:37.379Z,19.80
2018-06-09T05:21:08.304Z,19.80
2018-06-09T05:23:38.851Z,19.70
2018-06-09T05:26:09.361Z,19.70
2018-06-09T05:28:39.142Z,19.70
2018-06-09T05:31:09.772Z,19.80
2018-06-09T05:33:40.487Z,19.90
2018-06-09T05:36:11.748Z,19.90
2018-06-09T05:38:41.948Z,20.00
2018-06-09T05:41:11.916Z,20.10
2018-06-09T05:43:41.551Z,20.20
2018-06-09T05:46:11.186Z,20.30
2018-06-09T05:48:40.900Z,20.40
2018-06-09T05:51:10.488Z,20.50
2018-06-09T05:53:40.077Z,20.50
2018-06-09T05:56:09.724Z,20.50
2018-06-09T05:58:39.472Z,20.50
2018-06-09T06:03:38.193Z,20.50
2018-06-09T06:06:07.854Z,20.50
2018-06-09T06:08:37.770Z,20.60
2018-06-09T06:11:07.461Z,20.60
2018-06-09T06:13:37.049Z,20.70
2018-06-09T06:16:06.816Z,20.70
2018-06-09T06:18:36.599Z,20.70
2018-06-09T06:21:06.146Z,20.70
2018-06-09T06:23:35.874Z,20.70
2018-06-09T06:26:05.730Z,20.70
2018-06-09T06:28:35.412Z,20.70
2018-06-09T06:31:04.996Z,20.60
2018-06-09T06:33:34.756Z,20.70
2018-06-09T06:36:04.524Z,20.70
2018-06-09T06:41:03.161Z,20.70
2018-06-09T06:43:32.992Z,20.80
2018-06-09T06:46:02.645Z,21.00
2018-06-09T06:48:32.152Z,21.20
2018-06-09T06:51:01.889Z,21.40
2018-06-09T06:53:31.270Z,21.50
2018-06-09T06:56:00.666Z,21.60
2018-06-09T06:58:30.055Z,21.70
2018-06-09T07:00:59.442Z,21.70
2018-06-09T07:03:28.845Z,21.70
2018-06-09T07:05:58.250Z,21.70
2018-06-09T07:08:27.648Z,21.70
2018-06-09T07:10:57.036Z,21.60
2018-06-09T07:13:26.461Z,21.70
2018-06-09T07:15:55.870Z,21.80
2018-06-09T07:18:25.262Z,21.90
2018-06-09T07:20:54.644Z,21.90
2018-06-09T07:23:24.022Z,22.00
2018-06-09T07:25:59.915Z,22.10
2018-06-09T07:28:29.310Z,22.30
2018-06-09T07:30:58.737Z,22.50
2018-06-09T07:33:28.125Z,23.00
2018-06-09T07:35:57.505Z,23.90
2018-06-09T07:38:26.890Z,25.80
2018-06-09T07:40:56.273Z,28.10
2018-06-09T07:43:25.664Z,30.50
2018-06-09T07:45:55.070Z,32.30
2018-06-09T07:48:24.491Z,33.00
2018-06-09T07:50:53.866Z,34.10
2018-06-09T07:53:23.260Z,35.40
2018-06-09T07:55:52.649Z,35.90
2018-06-09T08:00:50.877Z,36.90
2018-06-09T08:03:20.280Z,37.80
2018-06-09T08:05:49.665Z,38.30
2018-06-09T08:08:19.073Z,38.30
2018-06-09T08:10:48.466Z,38.30
2018-06-09T08:13:17.848Z,38.40
2018-06-09T08:15:47.257Z,38.70
2018-06-09T08:18:16.638Z,38.50
2018-06-09T08:20:46.063Z,38.50
2018-06-09T08:23:15.467Z,38.50
2018-06-09T08:25:44.856Z,38.90
2018-06-09T08:28:14.266Z,38.70
2018-06-09T08:30:43.653Z,38.30
2018-06-09T08:33:13.032Z,38.50
2018-06-09T08:35:42.434Z,39.10
2018-06-09T08:38:11.839Z,39.60
2018-06-09T08:40:41.225Z,40.20
2018-06-09T08:43:10.621Z,40.50
2018-06-09T08:45:40.000Z,40.10
2018-06-09T08:48:09.389Z,40.20
2018-06-09T08:50:38.791Z,40.00
2018-06-09T08:53:08.207Z,39.90
2018-06-09T08:55:37.605Z,40.40
2018-06-09T08:58:07.045Z,40.30
2018-06-09T09:00:36.420Z,39.30
2018-06-09T09:05:34.632Z,39.00
2018-06-09T09:08:04.015Z,39.20
2018-06-09T09:10:33.434Z,39.80
2018-06-09T09:13:02.810Z,39.20
2018-06-09T09:15:32.214Z,38.10
2018-06-09T09:18:01.619Z,37.50
2018-06-09T09:20:31.017Z,37.60
2018-06-09T09:23:00.414Z,37.90
2018-06-09T09:25:29.805Z,37.60
2018-06-09T09:27:59.225Z,36.70
2018-06-09T09:30:28.617Z,35.30
2018-06-09T09:32:58.056Z,34.30
2018-06-09T09:35:27.440Z,32.90
2018-06-09T09:37:56.853Z,32.40
2018-06-09T09:40:26.249Z,32.80
2018-06-09T09:42:55.653Z,33.40
2018-06-09T09:45:25.045Z,33.70
2018-06-09T09:47:54.445Z,33.70
2018-06-09T09:52:52.713Z,35.50
2018-06-09T09:55:22.190Z,36.30
2018-06-09T09:57:58.560Z,37.00
2018-06-09T10:00:32.929Z,37.60
2018-06-09T10:03:02.322Z,37.90
2018-06-09T10:05:31.859Z,38.10
2018-06-09T10:08:01.552Z,37.90
2018-06-09T10:10:30.969Z,36.80
2018-06-09T10:13:00.683Z,35.90
2018-06-09T10:15:30.342Z,34.70
2018-06-09T10:20:21.563Z,33.30
2018-06-09T10:22:50.988Z,32.10
2018-06-09T10:25:20.379Z,31.60
2018-06-09T10:27:49.771Z,31.40
2018-06-09T10:30:19.241Z,30.70
2018-06-09T10:32:48.940Z,30.30
2018-06-09T10:35:18.562Z,29.80
2018-06-09T10:37:47.953Z,29.50
2018-06-09T10:40:17.368Z,29.20
2018-06-09T10:42:47.098Z,29.00
2018-06-09T10:45:16.524Z,28.60
2018-06-09T10:47:45.903Z,28.30
2018-06-09T10:50:15.353Z,28.20
2018-06-09T10:52:44.748Z,28.20
2018-06-09T10:55:14.147Z,28.00
2018-06-09T10:57:43.544Z,28.00
2018-06-09T11:00:12.941Z,27.80
2018-06-09T11:02:42.341Z,27.80
2018-06-09T11:05:11.787Z,27.80
2018-06-09T11:07:41.194Z,27.60
2018-06-09T11:10:10.651Z,27.50
2018-06-09T11:12:40.129Z,27.40
2018-06-09T11:15:09.592Z,27.30
2018-06-09T11:17:39.069Z,27.20
2018-06-09T11:20:08.545Z,27.20
2018-06-09T11:22:37.966Z,27.00
2018-06-09T11:25:08.108Z,27.00
2018-06-09T11:27:37.856Z,27.00
2018-06-09T11:30:07.753Z,27.00
2018-06-09T11:32:40.301Z,27.10
2018-06-09T11:35:11.736Z,27.00
2018-06-09T11:37:43.802Z,26.70
2018-06-09T11:40:14.536Z,26.60
2018-06-09T11:42:45.059Z,26.30
2018-06-09T11:45:15.311Z,26.20
2018-06-09T11:47:45.190Z,26.00
2018-06-09T11:50:15.504Z,25.90
2018-06-09T11:52:45.718Z,25.80
2018-06-09T11:55:16.887Z,25.80
2018-06-09T11:57:47.620Z,25.70
2018-06-09T12:00:18.562Z,25.70
2018-06-09T12:02:48.458Z,25.80
2018-06-09T12:05:18.348Z,25.90
2018-06-09T12:07:48.630Z,26.00
2018-06-09T12:10:18.893Z,26.10
2018-06-09T12:12:51.570Z,26.00
2018-06-09T12:15:22.039Z,26.20
2018-06-09T12:17:53.733Z,26.30
2018-06-09T12:20:23.660Z,26.50
2018-06-09T12:22:53.042Z,26.40
2018-06-09T12:25:22.513Z,26.40
2018-06-09T12:27:52.347Z,26.50
2018-06-09T12:30:21.726Z,26.50
2018-06-09T12:32:51.169Z,26.40
2018-06-09T12:35:20.569Z,26.50
2018-06-09T12:37:49.949Z,26.50
2018-06-09T12:40:19.695Z,26.40
2018-06-09T12:42:49.088Z,26.30
2018-06-09T12:45:18.473Z,26.20
2018-06-09T12:47:47.891Z,26.30
2018-06-09T12:50:17.327Z,26.30
2018-06-09T12:52:46.798Z,26.40
2018-06-09T12:55:16.218Z,26.40
2018-06-09T13:00:14.800Z,26.50
2018-06-09T13:02:44.176Z,26.50
2018-06-09T13:05:13.614Z,26.50
2018-06-09T13:07:43.112Z,26.50
2018-06-09T13:10:12.500Z,26.40
2018-06-09T13:12:41.925Z,26.30
2018-06-09T13:15:11.367Z,26.40
2018-06-09T13:17:40.815Z,26.30
2018-06-09T13:20:10.231Z,26.30
2018-06-09T13:22:39.652Z,26.20
2018-06-09T13:25:09.050Z,26.30
2018-06-09T13:27:38.445Z,26.40
2018-06-09T13:30:07.952Z,26.50
2018-06-09T13:32:37.565Z,26.50
2018-06-09T13:35:07.305Z,26.60
2018-06-09T13:37:36.980Z,26.60
2018-06-09T13:42:35.741Z,26.80
2018-06-09T13:45:05.655Z,26.70
2018-06-09T13:47:35.468Z,26.70
2018-06-09T13:50:05.312Z,26.70
2018-06-09T13:55:04.128Z,26.90
2018-06-09T13:57:33.891Z,26.90
2018-06-09T14:00:03.661Z,26.80
2018-06-09T14:02:33.389Z,26.80
2018-06-09T14:05:03.095Z,26.70
2018-06-09T14:07:32.781Z,26.70
2018-06-09T14:10:02.438Z,26.70
2018-06-09T14:12:32.150Z,26.60
2018-06-09T14:15:01.853Z,26.60
2018-06-09T14:17:31.551Z,26.70
2018-06-09T14:20:01.128Z,26.70
2018-06-09T14:22:30.778Z,26.70
2018-06-09T14:25:00.385Z,26.60
2018-06-09T14:27:30.181Z,26.60
2018-06-09T14:29:59.599Z,26.60
2018-06-09T14:32:29.298Z,26.50
2018-06-09T14:34:58.915Z,26.50
2018-06-09T14:37:28.726Z,26.50
2018-06-09T14:39:58.277Z,26.30
2018-06-09T14:42:27.957Z,26.30
2018-06-09T14:44:57.633Z,26.40
2018-06-09T14:47:27.444Z,26.30
2018-06-09T14:49:57.055Z,26.40
2018-06-09T14:52:26.768Z,26.50
2018-06-09T14:54:56.372Z,26.40
2018-06-09T14:57:26.001Z,26.30
2018-06-09T14:59:55.493Z,26.30
2018-06-09T15:02:25.224Z,26.30
2018-06-09T15:04:55.022Z,26.50
2018-06-09T15:07:24.724Z,26.50
2018-06-09T15:09:54.191Z,26.50
2018-06-09T15:12:23.848Z,26.50
2018-06-09T15:14:53.532Z,26.60
2018-06-09T15:17:23.475Z,26.50
2018-06-09T15:19:53.068Z,26.50
2018-06-09T15:22:22.953Z,26.50
2018-06-09T15:24:52.705Z,26.50
2018-06-09T15:27:22.577Z,26.40
2018-06-09T15:32:21.217Z,26.40
2018-06-09T15:34:50.988Z,26.40
2018-06-09T15:37:20.552Z,26.40
2018-06-09T15:39:50.132Z,26.50
2018-06-09T15:42:19.915Z,26.50
2018-06-09T15:47:18.657Z,26.40
2018-06-09T15:49:48.368Z,26.40
2018-06-09T15:52:18.148Z,26.40
2018-06-09T15:54:47.892Z,26.40
2018-06-09T15:57:17.656Z,26.40
2018-06-09T15:59:47.324Z,26.40
2018-06-09T16:02:17.027Z,26.40
2018-06-09T16:04:46.909Z,26.40
2018-06-09T16:07:16.648Z,26.30
2018-06-09T16:09:46.339Z,26.30
2018-06-09T16:12:16.120Z,26.30
2018-06-09T16:14:45.909Z,26.30
2018-06-09T16:17:15.751Z,26.30
2018-06-09T16:19:45.293Z,26.30
2018-06-09T16:22:15.015Z,26.20
2018-06-09T16:24:44.782Z,26.20
2018-06-09T16:27:14.474Z,26.20
2018-06-09T16:32:13.139Z,26.10
2018-06-09T16:34:43.004Z,26.20
2018-06-09T16:39:41.842Z,26.20
2018-06-09T16:42:11.517Z,26.10
2018-06-09T16:44:41.276Z,26.10
2018-06-09T16:47:10.756Z,26.10
2018-06-09T16:49:40.381Z,26.10
2018-06-09T16:52:10.075Z,26.00
2018-06-09T16:54:39.753Z,25.90
2018-06-09T16:57:09.417Z,25.90
2018-06-09T16:59:39.113Z,25.90
2018-06-09T17:02:08.696Z,25.80
2018-06-09T17:04:38.344Z,25.70
2018-06-09T17:07:07.881Z,25.70
2018-06-09T17:09:37.561Z,25.70
2018-06-09T17:12:07.417Z,25.60
2018-06-09T17:14:37.037Z,25.50
2018-06-09T17:17:06.593Z,25.50
2018-06-09T17:19:36.289Z,25.40
2018-06-09T17:22:06.096Z,25.30
2018-06-09T17:24:35.769Z,25.20
2018-06-09T17:27:05.288Z,25.20
2018-06-09T17:29:35.088Z,25.10
2018-06-09T17:32:04.837Z,25.00
2018-06-09T17:34:34.528Z,25.00
2018-06-09T17:37:04.133Z,24.90
2018-06-09T17:39:33.737Z,24.80
2018-06-09T17:42:03.529Z,24.70
2018-06-09T17:44:33.189Z,24.70
2018-06-09T17:47:02.851Z,24.70
2018-06-09T17:49:32.560Z,24.60
2018-06-09T17:52:02.223Z,24.60
2018-06-09T17:54:32.068Z,24.50
2018-06-09T17:59:30.620Z,24.40
2018-06-09T18:02:00.315Z,24.40
2018-06-09T18:04:30.092Z,24.30
2018-06-09T18:06:59.801Z,24.20
2018-06-09T18:09:29.430Z,24.20
2018-06-09T18:11:59.271Z,24.20
2018-06-09T18:14:28.786Z,24.20
2018-06-09T18:16:58.500Z,24.10
2018-06-09T18:19:28.350Z,24.10
2018-06-09T18:21:57.985Z,24.00
2018-06-09T18:24:27.673Z,23.90
2018-06-09T18:26:57.294Z,23.90
2018-06-09T18:29:27.020Z,23.80
2018-06-09T18:31:56.640Z,23.70
2018-06-09T18:34:26.150Z,23.60
2018-06-09T18:36:55.737Z,23.50
2018-06-09T18:39:25.465Z,23.50
2018-06-09T18:41:55.185Z,23.40
2018-06-09T18:44:24.992Z,23.30
2018-06-09T18:46:54.811Z,23.30
2018-06-09T18:49:24.564Z,23.20
2018-06-09T18:51:54.333Z,23.10
2018-06-09T18:54:23.910Z,23.10
2018-06-09T18:56:53.644Z,23.00
2018-06-09T18:59:23.361Z,23.00
2018-06-09T19:01:53.215Z,22.90
2018-06-09T19:04:22.849Z,22.90
2018-06-09T19:06:52.572Z,22.80
2018-06-09T19:09:22.318Z,22.70
2018-06-09T19:11:51.908Z,22.60
2018-06-09T19:14:21.662Z,22.60
2018-06-09T19:16:51.328Z,22.50
2018-06-09T19:19:21.085Z,22.40
2018-06-09T19:21:50.795Z,22.40
2018-06-09T19:24:20.490Z,22.30
2018-06-09T19:26:50.214Z,22.20
2018-06-09T19:29:20.077Z,22.20
2018-06-09T19:31:49.581Z,22.10
2018-06-09T19:34:19.091Z,22.10
2018-06-09T19:36:48.604Z,22.00
2018-06-09T19:39:18.603Z,22.00
2018-06-09T19:41:48.016Z,21.90
2018-06-09T19:44:17.848Z,21.90
2018-06-09T19:46:47.569Z,21.90
2018-06-09T19:49:16.945Z,21.80
2018-06-09T19:51:46.326Z,21.80
2018-06-09T19:54:15.717Z,21.70
2018-06-09T19:56:45.618Z,21.70
2018-06-09T19:59:14.977Z,21.70
2018-06-09T20:01:44.734Z,21.70
2018-06-09T20:04:14.560Z,21.60
2018-06-09T20:06:43.961Z,21.60
2018-06-09T20:09:13.436Z,21.50
2018-06-09T20:11:42.809Z,21.50
2018-06-09T20:14:12.773Z,21.50
2018-06-09T20:16:42.278Z,21.50
2018-06-09T20:19:12.598Z,21.40
2018-06-09T20:21:42.592Z,21.40
2018-06-09T20:24:12.442Z,21.40
2018-06-09T20:26:42.253Z,21.40
2018-06-09T20:29:12.145Z,21.30
2018-06-09T20:31:41.709Z,21.30
2018-06-09T20:34:11.413Z,21.30
2018-06-09T20:36:42.100Z,21.30
2018-06-09T20:39:11.734Z,21.20
2018-06-09T20:41:42.281Z,21.20
2018-06-09T20:44:12.996Z,21.20
2018-06-09T20:46:43.257Z,21.10
2018-06-09T20:49:13.130Z,21.10
2018-06-09T20:51:43.551Z,21.10
2018-06-09T20:54:14.087Z,21.00
2018-06-09T20:56:43.950Z,21.00
2018-06-09T20:59:13.375Z,21.00
2018-06-09T21:01:43.260Z,21.00
2018-06-09T21:04:12.657Z,21.00
2018-06-09T21:06:42.649Z,21.00
2018-06-09T21:09:12.040Z,20.90
2018-06-09T21:11:41.412Z,20.90
2018-06-09T21:14:11.012Z,20.90
2018-06-09T21:16:40.756Z,20.80
2018-06-09T21:19:10.653Z,20.80
2018-06-09T21:21:40.603Z,20.70
2018-06-09T21:24:09.984Z,20.70
2018-06-09T21:26:44.331Z,20.70
2018-06-09T21:29:17.927Z,20.70
2018-06-09T21:31:47.310Z,20.60
2018-06-09T21:34:36.167Z,20.60
2018-06-09T21:37:10.481Z,20.60
2018-06-09T21:39:44.848Z,20.60
2018-06-09T21:42:19.480Z,20.50
2018-06-09T21:44:52.933Z,20.50
2018-06-09T21:47:22.392Z,20.50
2018-06-09T21:49:51.755Z,20.50
2018-06-09T21:52:21.181Z,20.50
2018-06-09T21:54:50.552Z,20.40
2018-06-09T21:57:19.920Z,20.40
2018-06-09T21:59:49.336Z,20.50
2018-06-09T22:02:18.757Z,20.40
2018-06-09T22:04:48.481Z,20.40
2018-06-09T22:07:18.137Z,20.40
2018-06-09T22:09:48.034Z,20.40
2018-06-09T22:12:17.803Z,20.40
2018-06-09T22:14:47.168Z,20.30
2018-06-09T22:17:16.639Z,20.30
2018-06-09T22:22:15.305Z,20.20
2018-06-09T22:24:44.710Z,20.20
2018-06-09T22:27:14.112Z,20.20
2018-06-09T22:29:43.965Z,20.20
2018-06-09T22:32:13.802Z,20.10
2018-06-09T22:34:43.473Z,20.20
2018-06-09T22:37:12.937Z,20.10
2018-06-09T22:39:42.301Z,20.00
2018-06-09T22:42:12.130Z,20.00
2018-06-09T22:44:41.504Z,20.00
2018-06-09T22:47:11.018Z,19.90
2018-06-09T22:49:40.874Z,19.90
2018-06-09T22:52:10.605Z,19.90
2018-06-09T22:54:40.318Z,19.90
2018-06-09T22:57:10.101Z,19.90
2018-06-09T22:59:39.853Z,19.80
2018-06-09T23:02:09.496Z,19.80
2018-06-09T23:04:39.152Z,19.90
2018-06-09T23:07:08.736Z,19.80
2018-06-09T23:09:38.417Z,19.80
2018-06-09T23:12:08.280Z,19.80
2018-06-09T23:14:38.049Z,19.80
2018-06-09T23:17:07.706Z,19.80
2018-06-09T23:19:37.418Z,19.80
2018-06-09T23:22:07.183Z,19.80
2018-06-09T23:27:06.040Z,19.70
2018-06-09T23:29:35.721Z,19.70
2018-06-09T23:32:05.457Z,19.60
2018-06-09T23:34:35.137Z,19.60
2018-06-09T23:37:04.556Z,19.60
2018-06-09T23:39:34.372Z,19.60
2018-06-09T23:42:04.149Z,19.50
2018-06-09T23:47:02.972Z,19.50
2018-06-09T23:49:32.572Z,19.40
2018-06-09T23:52:02.256Z,19.40
2018-06-09T23:54:31.904Z,19.40
2018-06-09T23:57:01.613Z,19.40
2018-06-09T23:59:31.488Z,19.40
